Time;durP1;ratioP1;P1;durP2;ratioP2;P2;SDS_P1;SDS_P2;PMS_P1;PMS_P2;Temp;Humidity;BMP_temperature;BMP_pressure;BME280_temperature;BME280_humidity;BME280_pressure;Samples;Min_cycle;Max_cycle;Signal;HPM_P1;HPM_P2
2023/12/21 06:46:39;;;;;;;33.90;13.35;;;24.40;67.00;;;;;;5084556;28;20465;-34
2023/12/21 06:49:05;;;;;;;33.25;13.82;;;24.50;66.10;;;;;;5073057;28;20081;-30
2023/12/21 06:51:31;;;;;;;32.17;12.93;;;24.30;66.80;;;;;;5061247;28;20098;-30
2023/12/21 06:53:58;;;;;;;31.98;13.88;;;24.20;66.60;;;;;;5062010;28;20551;-30
2023/12/21 06:56:24;;;;;;;27.08;13.82;;;24.00;66.80;;;;;;5063130;28;20531;-30
2023/12/21 06:58:51;;;;;;;32.90;13.57;;;23.90;67.00;;;;;;5061540;28;20066;-30
2023/12/21 07:01:18;;;;;;;33.08;14.90;;;23.80;67.20;;;;;;5062193;28;20082;-31
2023/12/21 07:03:44;;;;;;;32.80;15.90;;;23.70;67.30;;;;;;5063319;28;20067;-31
2023/12/21 07:06:10;;;;;;;27.85;13.60;;;23.70;67.50;;;;;;5062848;28;20109;-32
2023/12/21 07:08:37;;;;;;;33.13;14.93;;;23.70;67.60;;;;;;5060693;28;20153;-32
2023/12/21 07:11:03;;;;;;;34.63;13.25;;;23.70;67.60;;;;;;5063221;28;20078;-30
2023/12/21 07:13:30;;;;;;;29.60;13.98;;;23.60;67.70;;;;;;5063036;28;20081;-30
2023/12/21 07:15:57;;;;;;;39.40;13.82;;;23.60;67.70;;;;;;5061799;28;20169;-30
2023/12/21 07:18:23;;;;;;;32.67;12.73;;;23.60;67.90;;;;;;5063532;28;20067;-33
2023/12/21 07:20:49;;;;;;;31.25;13.45;;;23.60;67.80;;;;;;5063402;28;20068;-30
2023/12/21 07:23:16;;;;;;;36.50;13.85;;;23.60;67.80;;;;;;5065942;28;20097;-28
2023/12/21 07:25:43;;;;;;;29.33;13.05;;;23.60;67.70;;;;;;5062565;28;20102;-30
2023/12/21 07:28:09;;;;;;;36.88;13.68;;;23.60;67.20;;;;;;5062235;28;20610;-34
2023/12/21 07:30:36;;;;;;;29.67;13.60;;;23.50;66.70;;;;;;5062122;28;20068;-30
2023/12/21 07:33:02;;;;;;;29.85;12.48;;;23.50;66.90;;;;;;5061925;28;20071;-30
2023/12/21 07:35:29;;;;;;;36.15;13.30;;;23.50;67.10;;;;;;5062760;28;20070;-31
2023/12/21 07:37:55;;;;;;;26.98;12.18;;;23.60;67.50;;;;;;5068324;28;20063;-31
2023/12/21 07:40:22;;;;;;;38.30;17.90;;;23.60;67.50;;;;;;5062170;28;20110;-29
2023/12/21 07:42:48;;;;;;;58.85;35.83;;;23.60;67.60;;;;;;5062907;28;20104;-32
2023/12/21 07:45:15;;;;;;;95.43;48.85;;;23.60;67.90;;;;;;5062534;28;20124;-30
2023/12/21 07:47:42;;;;;;;92.00;46.33;;;23.50;67.20;;;;;;5063592;28;20074;-30
2023/12/21 07:50:09;;;;;;;94.75;51.33;;;23.50;67.00;;;;;;5063015;28;20494;-30
2023/12/21 07:52:35;;;;;;;84.70;49.50;;;23.50;67.50;;;;;;5060911;28;20540;-31
2023/12/21 07:55:02;;;;;;;103.35;56.70;;;23.50;67.50;;;;;;5062675;28;20148;-31
2023/12/21 07:57:28;;;;;;;91.85;56.03;;;23.50;67.70;;;;;;5052163;28;20139;-32
2023/12/21 07:59:55;;;;;;;93.13;57.15;;;23.50;67.80;;;;;;5051226;28;21045;-30
2023/12/21 08:02:21;;;;;;;93.07;54.47;;;23.50;67.80;;;;;;5049154;28;20136;-30
2023/12/21 08:04:48;;;;;;;88.10;53.78;;;23.50;67.80;;;;;;5046259;28;20110;-30
2023/12/21 08:07:14;;;;;;;87.00;51.97;;;23.50;67.80;;;;;;5048260;28;20078;-30
2023/12/21 08:09:41;;;;;;;94.38;52.20;;;23.50;67.70;;;;;;5049125;28;20078;-31
2023/12/21 08:12:08;;;;;;;81.53;49.53;;;23.50;67.70;;;;;;5050552;28;20094;-28
2023/12/21 08:14:37;;;;;;;85.30;50.33;;;23.50;67.70;;;;;;5047626;28;20079;-30
2023/12/21 08:17:09;;;;;;;82.45;49.80;;;23.50;67.70;;;;;;5048223;28;20081;-29
2023/12/21 08:19:38;;;;;;;85.57;48.88;;;23.50;67.70;;;;;;5047278;28;20074;-29
2023/12/21 08:22:05;;;;;;;81.00;48.63;;;23.50;67.70;;;;;;5047268;28;20686;-29
2023/12/21 08:24:33;;;;;;;77.10;45.47;;;23.50;67.70;;;;;;5049438;28;20107;-29
2023/12/21 08:26:59;;;;;;;76.55;45.65;;;23.50;67.70;;;;;;5048975;28;20067;-30
2023/12/21 08:29:26;;;;;;;74.25;44.80;;;23.50;67.80;;;;;;5049472;28;20118;-29
2023/12/21 08:31:53;;;;;;;70.53;43.88;;;23.50;67.80;;;;;;5047348;28;20072;-29
2023/12/21 08:34:22;;;;;;;69.93;42.67;;;23.50;67.80;;;;;;5049344;28;20072;-29
2023/12/21 08:36:50;;;;;;;71.97;42.35;;;23.50;67.80;;;;;;5051520;28;20143;-29
2023/12/21 08:39:16;;;;;;;74.07;40.72;;;23.50;67.70;;;;;;5048854;28;20089;-23
2023/12/21 08:41:43;;;;;;;62.45;35.95;;;23.60;68.20;;;;;;5046100;28;20070;-36
2023/12/21 08:44:10;;;;;;;61.08;32.78;;;23.70;67.90;;;;;;5047977;28;20444;-31
2023/12/21 08:46:41;;;;;;;59.05;33.63;;;23.60;69.80;;;;;;5047806;28;20107;-37
2023/12/21 08:49:07;;;;;;;64.95;34.10;;;23.60;69.10;;;;;;5047826;28;20154;-35
2023/12/21 08:51:34;;;;;;;62.38;32.63;;;23.60;68.80;;;;;;5048654;28;20162;-34
2023/12/21 08:54:00;;;;;;;61.67;32.58;;;23.60;68.60;;;;;;5047610;28;20503;-39
2023/12/21 08:56:27;;;;;;;55.13;31.45;;;23.60;68.60;;;;;;5046494;28;20102;-31
2023/12/21 08:58:56;;;;;;;62.88;31.95;;;23.50;68.50;;;;;;5049177;28;20125;-37
2023/12/21 09:01:23;;;;;;;56.92;29.42;;;23.60;68.50;;;;;;5045751;28;20533;-32
2023/12/21 09:03:49;;;;;;;58.25;30.08;;;23.60;68.40;;;;;;5048197;28;20072;-35
2023/12/21 09:06:16;;;;;;;47.78;29.10;;;23.60;68.40;;;;;;5046325;28;20103;-35
2023/12/21 09:08:42;;;;;;;46.50;28.70;;;23.60;68.50;;;;;;5046752;28;20070;-35
2023/12/21 09:11:09;;;;;;;50.03;28.60;;;23.60;68.50;;;;;;5047036;28;20077;-38
2023/12/21 09:13:35;;;;;;;51.67;29.38;;;23.60;68.50;;;;;;5047848;28;20484;-40
2023/12/21 09:16:02;;;;;;;52.53;30.20;;;23.60;68.70;;;;;;5046030;28;20074;-36
2023/12/21 09:18:28;;;;;;;55.50;28.88;;;23.60;68.90;;;;;;5046464;28;20079;-35
2023/12/21 09:20:55;;;;;;;53.05;28.55;;;23.70;69.20;;;;;;5048187;28;20129;-35
2023/12/21 09:23:21;;;;;;;48.60;27.75;;;23.60;69.50;;;;;;5047538;28;20067;-36
2023/12/21 09:25:47;;;;;;;48.67;27.75;;;23.60;69.90;;;;;;5045478;28;20099;-33
2023/12/21 09:28:14;;;;;;;49.58;28.85;;;23.60;70.10;;;;;;5048735;28;20159;-39
2023/12/21 09:30:41;;;;;;;52.60;27.38;;;23.60;70.50;;;;;;5052635;28;20079;-34
2023/12/21 09:33:08;;;;;;;56.58;28.73;;;23.60;70.80;;;;;;5046229;28;20071;-37
2023/12/21 09:35:34;;;;;;;51.67;28.55;;;23.50;70.80;;;;;;5045762;28;20074;-36
2023/12/21 09:38:00;;;;;;;57.00;28.25;;;23.50;71.00;;;;;;5050030;28;20099;-40
2023/12/21 09:40:27;;;;;;;49.53;27.58;;;23.50;70.90;;;;;;5046360;28;20082;-37
2023/12/21 09:42:58;;;;;;;53.67;28.10;;;23.50;71.00;;;;;;5046256;28;20107;-33
2023/12/21 09:45:29;;;;;;;49.42;27.25;;;23.50;70.90;;;;;;5046512;28;20158;-38
2023/12/21 09:47:56;;;;;;;45.80;26.20;;;23.50;71.00;;;;;;5050108;28;20469;-35
2023/12/21 09:50:23;;;;;;;51.78;26.73;;;23.50;70.80;;;;;;5046541;28;20529;-38
2023/12/21 09:52:50;;;;;;;52.40;27.10;;;23.50;70.70;;;;;;5047481;28;20074;-41
2023/12/21 09:55:20;;;;;;;48.30;26.83;;;23.50;70.80;;;;;;5056094;28;20093;-41
2023/12/21 09:57:47;;;;;;;43.10;26.20;;;23.50;70.80;;;;;;5047942;28;20074;-35
2023/12/21 10:00:14;;;;;;;57.17;27.95;;;23.40;70.60;;;;;;5046509;28;20168;-32
2023/12/21 10:02:41;;;;;;;55.63;27.48;;;23.40;70.50;;;;;;5046150;28;20081;-40
2023/12/21 10:05:07;;;;;;;49.15;27.02;;;23.40;70.50;;;;;;5044273;28;20536;-35
2023/12/21 10:07:34;;;;;;;47.13;26.10;;;23.40;70.50;;;;;;5045181;28;20524;-41
2023/12/21 10:10:01;;;;;;;49.00;26.10;;;23.40;70.40;;;;;;5046200;28;20114;-40
2023/12/21 10:12:27;;;;;;;50.65;25.27;;;23.40;70.40;;;;;;5044337;28;20079;-34
2023/12/21 10:15:02;;;;;;;53.70;27.15;;;23.40;70.40;;;;;;5045838;28;20081;-39
2023/12/21 10:17:32;;;;;;;50.15;26.65;;;23.40;70.40;;;;;;5047008;28;20118;-36
2023/12/21 10:20:00;;;;;;;45.58;26.30;;;23.40;70.30;;;;;;5044237;28;20073;-34
2023/12/21 10:22:27;;;;;;;54.70;27.38;;;23.40;70.10;;;;;;5045140;28;20066;-36
2023/12/21 10:24:55;;;;;;;59.13;27.42;;;23.30;70.00;;;;;;5046037;28;20111;-41
2023/12/21 10:27:22;;;;;;;51.78;26.80;;;23.30;70.00;;;;;;5046833;28;20062;-35
2023/12/21 10:29:56;;;;;;;53.40;25.67;;;23.30;69.90;;;;;;5046002;28;20075;-38
2023/12/21 10:32:23;;;;;;;56.58;27.60;;;23.30;69.80;;;;;;5045960;28;20118;-37
2023/12/21 10:34:49;;;;;;;50.05;26.20;;;23.40;69.80;;;;;;5045981;28;20445;-36
2023/12/21 10:37:16;;;;;;;48.25;26.55;;;23.40;69.60;;;;;;5049505;28;20163;-35
2023/12/21 10:39:43;;;;;;;46.40;24.85;;;23.40;69.60;;;;;;5042847;28;20071;-30
2023/12/21 10:42:09;;;;;;;52.75;26.38;;;23.30;69.60;;;;;;5041699;28;20067;-37
2023/12/21 10:44:37;;;;;;;51.70;26.65;;;23.40;69.90;;;;;;5044678;28;20257;-40
2023/12/21 10:47:04;;;;;;;56.55;27.48;;;23.40;69.90;;;;;;5045778;28;20077;-33
2023/12/21 10:49:32;;;;;;;50.35;24.60;;;23.40;69.60;;;;;;5045766;28;20084;-38
2023/12/21 10:52:00;;;;;;;60.13;26.40;;;23.40;69.60;;;;;;5046979;28;20090;-31
2023/12/21 10:54:28;;;;;;;49.92;24.17;;;23.40;69.70;;;;;;5044119;28;20082;-36
2023/12/21 10:56:56;;;;;;;44.70;23.67;;;23.40;69.70;;;;;;5047394;28;20080;-40
2023/12/21 10:59:24;;;;;;;57.08;23.30;;;23.40;69.50;;;;;;5044709;28;20441;-38
2023/12/21 11:01:50;;;;;;;43.15;23.40;;;23.30;69.40;;;;;;5047035;28;20067;-40
2023/12/21 11:04:20;;;;;;;49.30;23.55;;;23.30;69.20;;;;;;5058254;28;20125;-33
2023/12/21 11:06:47;;;;;;;45.72;23.23;;;23.30;68.90;;;;;;5045991;28;20109;-37
2023/12/21 11:09:18;;;;;;;42.80;22.05;;;23.30;69.10;;;;;;5044530;28;20437;-39
2023/12/21 11:11:48;;;;;;;47.60;22.40;;;23.30;68.90;;;;;;5046121;28;20084;-36
2023/12/21 11:14:17;;;;;;;43.67;22.73;;;23.20;68.70;;;;;;5043611;28;20085;-38
2023/12/21 11:16:46;;;;;;;44.70;22.98;;;23.20;68.60;;;;;;5045995;28;20104;-39
2023/12/21 11:19:19;;;;;;;43.30;21.70;;;23.20;68.40;;;;;;5046154;28;20090;-32
2023/12/21 11:21:46;;;;;;;48.85;21.45;;;23.20;68.30;;;;;;5046467;28;20135;-41
2023/12/21 11:24:26;;;;;;;44.90;22.00;;;23.20;68.40;;;;;;5042331;28;20226;-33
2023/12/21 11:26:53;;;;;;;46.45;21.23;;;23.20;68.30;;;;;;5046043;28;20109;-36
2023/12/21 11:29:26;;;;;;;42.63;21.27;;;23.20;68.20;;;;;;5043735;28;20070;-32
2023/12/21 11:31:52;;;;;;;41.35;20.63;;;23.20;68.20;;;;;;5043760;28;20079;-35
2023/12/21 11:34:23;;;;;;;38.75;20.85;;;23.20;68.20;;;;;;5050188;28;20067;-36
2023/12/21 11:36:57;;;;;;;38.08;21.00;;;23.20;68.00;;;;;;5052092;28;20429;-37
2023/12/21 11:39:24;;;;;;;41.17;20.63;;;23.20;68.10;;;;;;5050814;28;20071;-41
2023/12/21 11:41:58;;;;;;;44.90;20.67;;;23.20;68.10;;;;;;5050249;28;20071;-38
2023/12/21 11:44:38;;;;;;;43.25;19.83;;;23.20;68.00;;;;;;5048324;28;20595;-40
2023/12/21 11:47:12;;;;;;;41.22;19.08;;;23.20;67.90;;;;;;5049659;28;20150;-32
2023/12/21 11:49:38;;;;;;;35.00;19.67;;;23.10;67.70;;;;;;5049974;28;20118;-41
2023/12/21 11:52:05;;;;;;;42.53;19.85;;;23.10;67.80;;;;;;5048551;28;20095;-39
2023/12/21 11:54:32;;;;;;;36.90;19.67;;;23.20;67.80;;;;;;5048062;28;20158;-39
2023/12/21 11:57:15;;;;;;;43.20;20.58;;;23.10;67.70;;;;;;5050731;28;20118;-35
2023/12/21 11:59:42;;;;;;;39.88;18.92;;;23.10;67.70;;;;;;5048235;28;20083;-39
2023/12/21 12:02:11;;;;;;;32.75;19.38;;;23.10;67.80;;;;;;5049792;28;20068;-40
2023/12/21 12:04:37;;;;;;;37.05;19.35;;;23.10;67.70;;;;;;5047928;28;20075;-35
2023/12/21 12:07:04;;;;;;;33.55;19.08;;;23.10;67.90;;;;;;5048396;28;20082;-36
2023/12/21 12:09:31;;;;;;;34.22;18.50;;;23.10;68.00;;;;;;5047111;28;20070;-37
2023/12/21 12:11:59;;;;;;;32.95;17.90;;;23.10;68.10;;;;;;5048296;28;20076;-34
2023/12/21 12:14:25;;;;;;;35.20;17.65;;;23.10;68.20;;;;;;5049042;28;20072;-40
2023/12/21 12:16:52;;;;;;;31.42;17.30;;;23.10;68.40;;;;;;5056581;28;20521;-34
2023/12/21 12:19:18;;;;;;;35.20;17.80;;;23.10;68.40;;;;;;5044507;28;20577;-33
2023/12/21 12:21:45;;;;;;;28.38;16.60;;;23.10;68.50;;;;;;5062466;28;20098;-34
2023/12/21 12:24:17;;;;;;;29.95;16.75;;;23.10;69.30;;;;;;5044754;28;20158;-40
2023/12/21 12:26:43;;;;;;;31.58;17.27;;;23.10;68.60;;;;;;5047782;28;20159;-32
2023/12/21 12:29:15;;;;;;;28.38;15.82;;;23.10;69.40;;;;;;5048497;28;20078;-37
2023/12/21 12:31:43;;;;;;;32.35;16.33;;;23.10;68.70;;;;;;5048411;28;20158;-37
2023/12/21 12:34:10;;;;;;;31.52;16.88;;;23.10;68.70;;;;;;5048601;28;20165;-38
2023/12/21 12:36:36;;;;;;;33.40;15.95;;;23.10;68.80;;;;;;5055155;28;20071;-33
2023/12/21 12:39:03;;;;;;;25.80;16.10;;;23.10;68.90;;;;;;5047158;28;20154;-35
2023/12/21 12:41:31;;;;;;;25.95;15.13;;;23.10;68.90;;;;;;5047997;28;20075;-39
2023/12/21 12:43:58;;;;;;;29.15;16.17;;;23.10;69.00;;;;;;5048351;28;20090;-39
2023/12/21 12:46:26;;;;;;;28.33;15.70;;;23.10;69.10;;;;;;5048244;28;20168;-36
2023/12/21 12:48:52;;;;;;;26.20;15.27;;;23.00;69.10;;;;;;5046975;28;20067;-34
2023/12/21 12:51:22;;;;;;;24.80;14.43;;;23.00;69.10;;;;;;5047596;28;20071;-34
2023/12/21 12:53:50;;;;;;;22.85;14.35;;;23.00;69.10;;;;;;5048465;28;20083;-38
2023/12/21 12:56:16;;;;;;;25.58;14.95;;;23.10;69.20;;;;;;5047758;28;20072;-35
2023/12/21 12:58:43;;;;;;;21.50;14.30;;;23.00;69.20;;;;;;5048530;28;20075;-38
2023/12/21 13:01:09;;;;;;;25.33;14.23;;;23.00;69.30;;;;;;5046885;28;20526;-36
2023/12/21 13:03:36;;;;;;;21.92;13.70;;;23.00;69.30;;;;;;5047034;28;20079;-40
2023/12/21 13:06:03;;;;;;;20.20;13.32;;;23.00;69.40;;;;;;5044012;28;20091;-38
2023/12/21 13:08:30;;;;;;;23.08;14.02;;;23.00;69.40;;;;;;5045606;28;20079;-38
2023/12/21 13:10:56;;;;;;;22.50;14.15;;;23.00;69.60;;;;;;5046329;28;20510;-38
2023/12/21 13:13:23;;;;;;;17.98;12.27;;;23.00;69.70;;;;;;5047190;28;20071;-34
2023/12/21 13:15:50;;;;;;;22.33;13.23;;;23.00;69.80;;;;;;5046966;28;20063;-39
2023/12/21 13:18:16;;;;;;;17.55;12.48;;;23.00;69.90;;;;;;5046522;28;20078;-40
2023/12/21 13:20:43;;;;;;;21.42;12.73;;;23.00;69.90;;;;;;5045432;28;20079;-39
2023/12/21 13:23:11;;;;;;;23.65;13.20;;;23.00;70.00;;;;;;5046185;28;20073;-39
2023/12/21 13:25:37;;;;;;;24.17;12.70;;;23.00;70.10;;;;;;5046776;28;21041;-38
2023/12/21 13:28:04;;;;;;;21.45;12.88;;;23.00;70.20;;;;;;5046425;28;20064;-36
2023/12/21 13:30:30;;;;;;;19.48;12.63;;;23.00;70.20;;;;;;5046835;28;20076;-35
2023/12/21 13:32:57;;;;;;;21.90;12.80;;;23.00;70.20;;;;;;5047769;28;20162;-37
2023/12/21 13:35:24;;;;;;;22.33;12.32;;;23.00;70.30;;;;;;5045004;28;20071;-35
2023/12/21 13:37:50;;;;;;;17.55;12.25;;;23.00;70.40;;;;;;5054222;28;20519;-40
2023/12/21 13:40:16;;;;;;;17.15;11.57;;;23.00;70.40;;;;;;5045159;28;20099;-38
2023/12/21 13:42:43;;;;;;;20.45;12.02;;;23.00;70.40;;;;;;5047554;28;20083;-41
2023/12/21 13:45:09;;;;;;;19.13;11.90;;;23.00;70.50;;;;;;5044720;28;20515;-37
2023/12/21 13:47:38;;;;;;;16.27;11.40;;;23.00;70.50;;;;;;5045109;28;20075;-38
2023/12/21 13:50:05;;;;;;;18.27;11.10;;;23.00;70.50;;;;;;5045490;28;20107;-38
2023/12/21 13:52:32;;;;;;;17.15;11.65;;;23.00;70.50;;;;;;5047031;28;20086;-39
2023/12/21 13:54:58;;;;;;;18.23;12.13;;;23.00;70.60;;;;;;5044697;28;20610;-32
2023/12/21 13:57:25;;;;;;;15.27;11.13;;;23.00;70.60;;;;;;5046414;28;20119;-35
2023/12/21 13:59:51;;;;;;;16.25;11.52;;;23.00;70.60;;;;;;5045489;28;20428;-35
2023/12/21 14:02:18;;;;;;;15.27;11.38;;;23.00;70.60;;;;;;5046850;28;20468;-36
2023/12/21 14:04:45;;;;;;;18.77;11.57;;;23.00;70.60;;;;;;5045291;28;20083;-32
2023/12/21 14:07:11;;;;;;;16.83;11.35;;;23.00;70.70;;;;;;5044939;28;20067;-33
2023/12/21 14:09:39;;;;;;;20.77;11.70;;;23.00;70.60;;;;;;5046523;28;20098;-35
2023/12/21 14:12:06;;;;;;;17.95;11.00;;;23.00;70.70;;;;;;5046778;28;20086;-35
2023/12/21 14:14:32;;;;;;;15.98;10.63;;;23.00;70.60;;;;;;5046184;28;20079;-39
2023/12/21 14:16:59;;;;;;;15.10;10.82;;;23.00;70.60;;;;;;5046278;28;20078;-37
2023/12/21 14:19:25;;;;;;;17.25;10.75;;;23.00;70.60;;;;;;5046584;28;22079;-33
2023/12/21 14:21:52;;;;;;;16.02;11.10;;;23.00;70.60;;;;;;5043758;28;20605;-40
2023/12/21 14:24:18;;;;;;;16.92;10.55;;;23.00;70.60;;;;;;5046490;28;20079;-32
2023/12/21 14:26:44;;;;;;;16.58;10.95;;;23.00;70.60;;;;;;5043807;28;20131;-31
2023/12/21 14:29:11;;;;;;;15.23;10.60;;;22.90;70.60;;;;;;5047086;28;20133;-37
2023/12/21 14:31:38;;;;;;;12.95;9.73;;;23.00;70.60;;;;;;5046098;28;20445;-33
2023/12/21 14:34:04;;;;;;;16.63;11.02;;;23.00;70.70;;;;;;5045347;28;20082;-37
2023/12/21 14:36:31;;;;;;;15.27;10.75;;;23.00;70.60;;;;;;5046017;28;20072;-31
2023/12/21 14:38:57;;;;;;;16.50;10.63;;;22.90;70.60;;;;;;5043441;28;20072;-34
2023/12/21 14:41:23;;;;;;;13.38;10.00;;;22.90;70.60;;;;;;5044331;28;20125;-36
2023/12/21 14:43:50;;;;;;;14.60;10.10;;;22.90;70.60;;;;;;5046280;28;20144;-36
2023/12/21 14:46:17;;;;;;;16.13;10.50;;;22.90;70.60;;;;;;5044635;28;20206;-36
2023/12/21 14:48:43;;;;;;;17.98;10.38;;;22.90;70.60;;;;;;5045984;28;20071;-34
2023/12/21 14:51:11;;;;;;;17.45;10.60;;;22.90;70.60;;;;;;5045095;28;20071;-36
2023/12/21 14:53:37;;;;;;;14.02;9.98;;;22.90;70.50;;;;;;5045833;28;20417;-34
2023/12/21 14:56:04;;;;;;;15.95;10.48;;;22.90;70.50;;;;;;5044532;28;20067;-33
2023/12/21 14:58:30;;;;;;;15.48;10.27;;;22.90;70.50;;;;;;5044218;28;20455;-37
2023/12/21 15:00:57;;;;;;;12.60;10.07;;;22.90;70.50;;;;;;5043823;28;20125;-32
2023/12/21 15:03:23;;;;;;;14.75;10.48;;;22.90;70.60;;;;;;5046312;28;20078;-37
2023/12/21 15:05:50;;;;;;;16.42;10.95;;;22.90;70.70;;;;;;5042676;28;20087;-36
2023/12/21 15:08:16;;;;;;;17.45;10.77;;;22.90;70.60;;;;;;5048346;28;20066;-32
2023/12/21 15:10:43;;;;;;;15.23;11.02;;;22.90;70.60;;;;;;5049398;28;20067;-35
2023/12/21 15:13:09;;;;;;;14.43;10.32;;;22.90;70.70;;;;;;5050058;28;20548;-35
2023/12/21 15:15:36;;;;;;;15.63;11.00;;;22.90;70.70;;;;;;5049574;28;20072;-38
2023/12/21 15:18:04;;;;;;;17.70;11.32;;;22.90;70.70;;;;;;5048839;28;20148;-37
2023/12/21 15:20:30;;;;;;;13.20;10.18;;;22.90;70.80;;;;;;5048468;28;20082;-37
2023/12/21 15:22:58;;;;;;;19.85;10.90;;;22.90;70.80;;;;;;5046582;28;20134;-39
2023/12/21 15:25:25;;;;;;;15.20;10.65;;;22.90;70.80;;;;;;5049451;28;20151;-35
2023/12/21 15:27:52;;;;;;;14.88;10.18;;;22.90;70.80;;;;;;5047663;28;20080;-35
2023/12/21 15:30:20;;;;;;;14.75;10.18;;;22.90;70.80;;;;;;5047268;28;20121;-34
2023/12/21 15:32:47;;;;;;;16.42;10.38;;;22.90;70.80;;;;;;5048432;28;20076;-36
2023/12/21 15:35:16;;;;;;;14.82;10.48;;;22.90;70.80;;;;;;5049388;28;20063;-34
2023/12/21 15:37:43;;;;;;;13.75;9.90;;;22.90;70.80;;;;;;5048731;28;20080;-37
2023/12/21 15:40:10;;;;;;;17.70;11.30;;;22.90;70.80;;;;;;5049153;28;20459;-37
2023/12/21 15:42:37;;;;;;;20.48;11.25;;;22.90;70.90;;;;;;5049697;28;20067;-34
2023/12/21 15:45:03;;;;;;;19.65;10.82;;;22.90;70.80;;;;;;5049558;28;20121;-38
2023/12/21 15:47:30;;;;;;;17.30;10.40;;;22.90;70.80;;;;;;5048817;28;20178;-33
2023/12/21 15:49:56;;;;;;;15.65;10.50;;;22.90;70.70;;;;;;5048716;28;20071;-37
2023/12/21 15:52:23;;;;;;;17.98;10.38;;;22.90;70.70;;;;;;5046975;28;20106;-36
2023/12/21 15:54:49;;;;;;;18.00;10.27;;;22.90;70.80;;;;;;5048130;28;20083;-30
2023/12/21 15:57:16;;;;;;;18.70;11.25;;;22.80;70.60;;;;;;5047385;28;20113;-39
2023/12/21 15:59:43;;;;;;;15.27;10.98;;;22.80;70.70;;;;;;5046253;28;20166;-35
2023/12/21 16:02:09;;;;;;;21.27;11.30;;;22.80;70.70;;;;;;5049328;28;20137;-34
2023/12/21 16:04:35;;;;;;;21.77;11.43;;;22.80;70.70;;;;;;5047196;28;20067;-29
2023/12/21 16:07:02;;;;;;;23.70;11.43;;;22.90;70.50;;;;;;5048120;28;20070;-28
2023/12/21 16:09:28;;;;;;;19.08;10.80;;;22.90;71.20;;;;;;5048336;28;20155;-27
2023/12/21 16:11:55;;;;;;;18.23;11.00;;;22.90;70.50;;;;;;5047965;28;20076;-28
2023/12/21 16:14:21;;;;;;;16.55;10.38;;;22.90;70.60;;;;;;5048624;28;20080;-28
2023/12/21 16:16:48;;;;;;;24.90;12.02;;;22.90;70.60;;;;;;5048088;28;20079;-28
2023/12/21 16:19:14;;;;;;;17.23;10.77;;;22.90;70.80;;;;;;5048101;28;20067;-28
2023/12/21 16:21:41;;;;;;;21.77;11.23;;;22.90;70.80;;;;;;5047664;28;20079;-30
2023/12/21 16:24:09;;;;;;;20.55;11.13;;;22.90;70.90;;;;;;5047217;28;20086;-28
2023/12/21 16:26:42;;;;;;;19.45;10.82;;;22.90;71.00;;;;;;5047580;28;22050;-28
2023/12/21 16:29:09;;;;;;;20.70;10.60;;;22.90;71.20;;;;;;5047070;28;20075;-28
2023/12/21 16:31:38;;;;;;;20.55;10.95;;;22.80;71.20;;;;;;5050671;28;20087;-28
2023/12/21 16:34:04;;;;;;;19.45;10.55;;;22.80;71.30;;;;;;5045651;28;20118;-28
2023/12/21 16:36:31;;;;;;;23.13;10.65;;;22.80;71.30;;;;;;5048040;28;20075;-29
2023/12/21 16:38:58;;;;;;;22.85;11.90;;;22.80;71.40;;;;;;5046696;28;20154;-29
2023/12/21 16:41:26;;;;;;;23.73;11.93;;;22.80;71.60;;;;;;5046926;28;20134;-29
2023/12/21 16:43:53;;;;;;;22.83;11.82;;;22.80;71.70;;;;;;5046995;28;20082;-30
2023/12/21 16:46:19;;;;;;;36.08;12.25;;;22.80;71.30;;;;;;5046385;28;20122;-41
2023/12/21 16:48:46;;;;;;;29.58;12.05;;;22.90;72.10;;;;;;5046379;28;20169;-36
2023/12/21 16:51:13;;;;;;;28.08;13.20;;;23.20;70.50;;;;;;5047117;28;20074;-36
2023/12/21 16:53:40;;;;;;;22.48;12.65;;;23.20;70.50;;;;;;5048150;28;20075;-35
2023/12/21 17:01:18;;;;;;;33.33;13.68;;;24.10;68.90;;;;;;5146520;27;20376;-27
2023/12/21 17:03:44;;;;;;;24.48;12.98;;;24.00;68.30;;;;;;5124663;27;20104;-28
2023/12/21 17:06:11;;;;;;;30.15;14.75;;;23.80;69.00;;;;;;5142833;27;20097;-30
2023/12/21 17:08:37;;;;;;;27.05;13.65;;;23.60;70.00;;;;;;5144459;27;20116;-29
2023/12/21 17:11:04;;;;;;;33.90;14.35;;;23.50;70.00;;;;;;5144050;27;20071;-29
2023/12/21 17:13:31;;;;;;;23.15;13.68;;;23.50;70.50;;;;;;5143928;27;20185;-31
2023/12/21 17:15:58;;;;;;;21.65;12.60;;;23.60;70.40;;;;;;5143849;27;20095;-30
2023/12/21 17:18:25;;;;;;;24.40;12.40;;;23.60;69.90;;;;;;5142854;27;20540;-27
2023/12/21 17:20:51;;;;;;;28.08;13.65;;;23.60;70.10;;;;;;5143847;27;20254;-30
2023/12/21 17:23:18;;;;;;;22.27;12.85;;;23.60;70.30;;;;;;5144604;27;20068;-28
2023/12/21 17:25:44;;;;;;;29.70;12.88;;;23.70;70.00;;;;;;5143659;27;20522;-28
2023/12/21 17:28:11;;;;;;;25.35;13.98;;;23.70;69.90;;;;;;5144054;27;20063;-30
2023/12/21 17:30:39;;;;;;;25.50;13.73;;;23.60;70.40;;;;;;5144001;27;20294;-34
2023/12/21 17:33:06;;;;;;;21.10;11.50;;;23.60;71.10;;;;;;5141353;27;20074;-30
2023/12/21 17:35:32;;;;;;;21.92;12.63;;;23.70;69.80;;;;;;5143734;27;20074;-30
2023/12/21 17:37:59;;;;;;;23.80;12.40;;;23.70;70.90;;;;;;5141566;27;20082;-32
2023/12/21 17:40:25;;;;;;;20.67;11.20;;;23.70;70.20;;;;;;5143646;27;20557;-30
2023/12/21 17:42:52;;;;;;;21.20;12.15;;;23.60;70.10;;;;;;5142071;27;20090;-27
2023/12/21 17:45:18;;;;;;;25.30;12.20;;;23.70;70.30;;;;;;5123532;27;20100;-30
2023/12/21 17:47:45;;;;;;;18.17;11.65;;;23.70;70.20;;;;;;5141103;27;20536;-31
2023/12/21 17:50:13;;;;;;;24.35;12.80;;;23.70;70.30;;;;;;5125544;27;20487;-30
2023/12/21 17:52:39;;;;;;;21.77;12.52;;;23.70;70.70;;;;;;5143652;27;20731;-29
2023/12/21 17:55:06;;;;;;;19.85;10.88;;;23.80;72.20;;;;;;5143136;27;20074;-29
2023/12/21 17:57:33;;;;;;;17.88;10.82;;;23.80;70.80;;;;;;5142471;27;20076;-32
2023/12/21 18:00:04;;;;;;;20.02;11.10;;;23.70;70.60;;;;;;5143420;27;20592;-32
2023/12/21 18:02:31;;;;;;;25.65;11.88;;;23.70;70.40;;;;;;5143183;27;20083;-28
2023/12/21 18:04:57;;;;;;;17.95;10.10;;;23.80;70.50;;;;;;5142716;27;20525;-29
2023/12/21 18:07:24;;;;;;;20.13;10.23;;;23.80;70.50;;;;;;5142092;27;20429;-28
2023/12/21 18:09:50;;;;;;;18.00;9.80;;;23.80;70.80;;;;;;5141057;27;20067;-29
2023/12/21 18:12:17;;;;;;;16.40;9.63;;;23.70;70.60;;;;;;5129195;27;20126;-29
2023/12/21 18:14:44;;;;;;;17.42;9.38;;;23.80;71.10;;;;;;5128014;27;20155;-29
2023/12/21 18:17:10;;;;;;;16.10;9.25;;;23.80;70.90;;;;;;5127963;27;20087;-31
2023/12/21 18:19:37;;;;;;;18.88;9.82;;;23.80;71.50;;;;;;5129058;27;20107;-29
2023/12/21 18:22:06;;;;;;;22.20;9.50;;;23.80;72.80;;;;;;5127176;27;20131;-31
2023/12/21 18:24:34;;;;;;;17.20;9.52;;;23.80;71.70;;;;;;5127776;27;20064;-31
2023/12/21 18:27:00;;;;;;;29.30;10.38;;;23.80;72.00;;;;;;5126768;27;20112;-32
2023/12/21 18:29:27;;;;;;;21.08;9.57;;;23.80;72.10;;;;;;5128392;27;20107;-31
2023/12/21 18:31:53;;;;;;;21.33;9.23;;;23.80;72.00;;;;;;5128273;27;20529;-32
2023/12/21 18:34:20;;;;;;;23.55;8.65;;;23.80;71.40;;;;;;5128616;27;20079;-29
2023/12/21 18:36:46;;;;;;;25.83;9.70;;;23.90;71.40;;;;;;5128505;27;20076;-30
2023/12/21 18:39:13;;;;;;;33.63;9.48;;;23.90;71.60;;;;;;5128664;27;20099;-32
2023/12/21 18:41:39;;;;;;;22.27;9.38;;;23.90;72.40;;;;;;5127425;27;20095;-32
2023/12/21 18:44:06;;;;;;;28.20;9.85;;;23.80;74.30;;;;;;5126562;27;20115;-29
2023/12/21 18:46:40;;;;;;;18.90;9.27;;;23.80;75.10;;;;;;5126069;27;20071;-35
2023/12/21 18:49:06;;;;;;;23.45;8.07;;;23.80;75.10;;;;;;5129667;27;20078;-29
2023/12/21 18:51:33;;;;;;;18.92;8.45;;;23.80;74.40;;;;;;5108831;27;20076;-33
2023/12/21 18:53:59;;;;;;;16.05;7.97;;;23.80;74.10;;;;;;5126729;27;20076;-30
2023/12/21 18:56:27;;;;;;;18.23;7.30;;;23.80;74.60;;;;;;5127595;27;20529;-30
2023/12/21 18:58:54;;;;;;;14.60;7.00;;;23.70;76.10;;;;;;5128660;27;20064;-30
2023/12/21 19:01:20;;;;;;;13.80;6.97;;;23.80;75.90;;;;;;5129192;27;20206;-30
2023/12/21 19:03:47;;;;;;;14.02;6.82;;;23.80;76.20;;;;;;5129462;27;20059;-33
2023/12/21 19:06:15;;;;;;;15.05;7.35;;;23.80;76.20;;;;;;5127320;27;20087;-30
2023/12/21 19:08:42;;;;;;;14.27;7.68;;;23.90;76.30;;;;;;5128193;27;20514;-34
2023/12/21 19:11:22;;;;;;;12.85;7.45;;;23.90;77.30;;;;;;5128149;27;20080;-33
2023/12/21 19:13:50;;;;;;;8.88;6.05;;;23.80;77.40;;;;;;5127400;27;20098;-33
2023/12/21 19:16:17;;;;;;;11.00;6.47;;;23.80;76.40;;;;;;5127029;27;20064;-30
2023/12/21 19:18:47;;;;;;;15.82;8.18;;;23.80;76.40;;;;;;5128338;27;20079;-31